West Mystic, Connecticut
Current Conditions -  °F | °C
As of 8:56 AM on Sunday 21 Dec 2014 (Local Time) from KGON Reporting Station
Overcast Overcast  
Wind Chill: 25°   Ceiling: 2500
Heat Index: 33°   Visibility: 8mi
Dew Point: 32°   Wind: 10mph
Humidity: 96%   Direction: 360°N
Pressure: 30.28"   Gusts: NA
Location:  41.35°N, 71.98°W
Report Text: KGON 211356Z 36009KT 8SM SCT012 BKN025 OVC049 01/00 A3028 RMK AO2 UPB12E24 SLP253 P0000 T00060000
Loading
Personal Weather Stations






























Interactive Weather Map New forecast layout! Learn more

10-Day Weather Forecast

Advertisements
Track Severe Weather on mobile